Aérodrome :
LOGIN :

S'inscrire | Disclaimer

   EN    FR    IT 

 










Légende :    VFR   VFR Marginal   IFR   IFR Intensif   IFR Très Intensif
Visi : 
Plafond : 
>= 8 km
>= 3000ft
5 à 8 km
1000 à 3000 ft
1500m à 5 km
500 à 1000 ft
800 à 1500m
200 à 500 ft
< 800m
< 200 ft
Symboles :   Orages  Brouillard  Fortes neiges  Fortes précipitations  Vent > 20 kt
SIGMETs :   Divers  Orages  Givrage  Turbulence  Onde Orograph.  Cendres Volcan.







- Altitude de l'aérodrome : 580 ft
- Voir les cartes d'approche


LFOA - Avord

DERNIER METAR :
  • 150300Z AUTO 12002KT 3800 BR SCT029 M05/M05 Q1023

METARs EXPIRÉS :
  • 150230Z AUTO 00000KT 4200 BR FEW030 M05/M06 Q1023
  • 150200Z AUTO 10002KT 3800 BR NSC M04/M04 Q1023
  • 150130Z AUTO VRB02KT 4300 BR FEW031 M04/M05 Q1023
  • 150100Z AUTO 25002KT 4300 2000 BR FEW031 M04/M04 Q1023
  • 150030Z AUTO 26002KT 4800 BR OVC032 M04/M04 Q1023

TAF TAF LFOA
Valide du 14 à 15h jusqu'au 15 à 15h UTC


141400Z 1415/1515 VRB02KT CAVOK
TEMPO 1420/1508 3000 BR
PROB30
TEMPO 1422/1507 0800 FZFG VV///
BECMG 1506/1509 12010KT
BECMG 1511/1513 4000 RA SCT014 BKN025
PROB30
TEMPO 1512/1515 -FZRA BKN008
Pas de NOTAMs connus pour ce terrain.



MET'MAP, la Météo Aéronautique d'un coup d'oeil ! - Copyright ORBIFLY Décembre 2007 - Disclaimer

ORBIFLY MET'MAP TEAM :

Programmation & Développement : Alexandra Zaïnal
Conception & Développement : Baudouin d'Aumeries
Co-Programmation & Développement : Marc-Olivier Méhu
Soutien technique & logistique : Manuel Goepfert

Contact : metmap@orbifly.com




SOURCES & CREDITS :

   NOAA